Tahitian Princess — ZCDD8 — position and weather

sailwx.info

Track history (hours):
 
Tides and Currents Weather Stations Pressure Air Temp Water Temp Dewpoint Dewpoint Depression Visibility Wind Speed Wind Dir Waves Ship Positions

Tahitian Princess

Operator: P & O Irish Sea Ltd

Last reported at 2018-Dec-11 07:30 UTC. Time now 2018-Dec-11 07:58 UTC.
Position N 53°27' W 003°01'.

Length 167 m; draft 5.7 m.

Type: Passenger vessel. MMSI: 310362000.

Date/timePositionNaut miles runAvg speedWind from/ knotsBaromVisibWave heightAir tempDewpointWater temp
2018-Dec-11 07:30N 53°27' W 003°01'0 0.0
2018-Dec-11 07:00N 53°27' W 003°01'0 0.0
2018-Dec-11 06:30N 53°27' W 003°01'0 0.0
2018-Dec-11 06:00N 53°27' W 003°01'0 0.0
2018-Dec-11 05:29N 53°27' W 003°01'0 0.6
2018-Dec-11 05:00N 53°27' W 003°01'0 0.7
2018-Dec-11 04:30N 53°27' W 003°01'611.3
2018-Dec-11 04:00N 53°31' W 003°07'816.6
2018-Dec-11 03:31N 53°31' W 003°21'816.3
2018-Dec-11 03:01N 53°31' W 003°35'8317.0
2018-Dec-10 22:09N 53°23' W 005°53'518.0
2018-Dec-10 21:51N 53°21' W 006°01'514.9
2018-Dec-10 21:30N 53°21' W 006°10'2 3.0
2018-Dec-10 20:50N 53°21' W 006°13'0 0.0
2018-Dec-10 20:14N 53°21' W 006°13'0 0.0
2018-Dec-10 20:00N 53°21' W 006°13'0 0.0
2018-Dec-10 19:31N 53°21' W 006°13'0 0.0
2018-Dec-10 19:01N 53°21' W 006°13'0 0.0
2018-Dec-10 18:30N 53°21' W 006°13'0 0.0
2018-Dec-10 18:00N 53°21' W 006°13'0 0.2
2018-Dec-10 17:30N 53°21' W 006°13'3 6.6
2018-Dec-10 17:00N 53°21' W 006°07'917.8
2018-Dec-10 16:30N 53°23' W 005°53'8019.2
2018-Dec-10 12:20N 53°33' W 003°40'618.0
2018-Dec-10 12:00N 53°33' W 003°30'917.7
2018-Dec-10 11:30N 53°31' W 003°15'815.0
2018-Dec-10 11:00N 53°28' W 003°04'2 4.2
2018-Dec-10 10:30N 53°27' W 003°01'0 0.2
2018-Dec-10 10:00N 53°27' W 003°01'0 0.6
2018-Dec-10 09:30N 53°27' W 003°01'0 0.0
2018-Dec-10 09:00N 53°27' W 003°01'0 0.0
2018-Dec-10 08:30N 53°27' W 003°01'0 0.0
2018-Dec-10 08:00N 53°27' W 003°01'0 0.0
2018-Dec-10 07:30N 53°27' W 003°01'0 0.0
2018-Dec-10 07:00N 53°27' W 003°01'0 0.0
2018-Dec-10 06:30N 53°27' W 003°01'0 0.4
2018-Dec-10 06:00N 53°27' W 003°01'0 0.6
2018-Dec-10 05:30N 53°27' W 003°01'4 7.9
2018-Dec-10 05:00N 53°30' W 003°06'713.7
2018-Dec-10 04:31N 53°31' W 003°17'917.8
2018-Dec-10 04:01N 53°31' W 003°32'917.2
2018-Dec-10 03:31N 53°32' W 003°46'7418.1
2018-Dec-09 23:26N 53°24' W 005°50'819.6
2018-Dec-09 23:00N 53°20' W 006°03'611.9
2018-Dec-09 22:30N 53°21' W 006°13'0 0.5
2018-Dec-09 22:00N 53°21' W 006°13'0 0.0
2018-Dec-09 21:30N 53°21' W 006°13'0 0.0
2018-Dec-09 21:00N 53°21' W 006°13'0 0.0
2018-Dec-09 20:30N 53°21' W 006°13'0 0.0
2018-Dec-09 20:00N 53°21' W 006°13'0 0.0
2018-Dec-09 19:30N 53°21' W 006°13'3 5.3
2018-Dec-09 19:00N 53°21' W 006°09'816.5
2018-Dec-09 18:30N 53°22' W 005°55'8221.0
2018-Dec-09 14:37N 53°34' W 003°39'220.9
2018-Dec-09 14:31N 53°34' W 003°35'1020.8
2018-Dec-09 14:01N 53°32' W 003°18'917.8
2018-Dec-09 13:31N 53°29' W 003°04'2 5.0
2018-Dec-09 13:00N 53°27' W 003°01'0 0.9
2018-Dec-09 12:30N 53°27' W 003°01'0 0.0
2018-Dec-09 12:00N 53°27' W 003°01'0 0.0
2018-Dec-09 11:30N 53°27' W 003°01'0 0.0
2018-Dec-09 11:00N 53°27' W 003°01'0 0.0
2018-Dec-09 10:31N 53°27' W 003°01'0 0.0
2018-Dec-09 10:01N 53°27' W 003°01'0 0.0
2018-Dec-09 09:31N 53°27' W 003°01'0 0.0
2018-Dec-09 09:00N 53°27' W 003°01'0 0.0
2018-Dec-09 08:30N 53°27' W 003°01'0 0.0
2018-Dec-09 08:00N 53°27' W 003°01'0 0.0
2018-Dec-09 07:31N 53°27' W 003°01'0 0.0
2018-Dec-09 07:00N 53°27' W 003°01'0 0.0
2018-Dec-09 06:30N 53°27' W 003°01'0 0.0
2018-Dec-09 06:00N 53°27' W 003°01'0 0.0
2018-Dec-09 05:30N 53°27' W 003°01'0 0.0
2018-Dec-09 05:01N 53°27' W 003°01'0 0.0
2018-Dec-09 04:30N 53°27' W 003°01'0 0.0
2018-Dec-09 04:00N 53°27' W 003°01'0 0.0
2018-Dec-09 03:30N 53°27' W 003°01'0 0.3
2018-Dec-09 03:00N 53°27' W 003°01'0 0.7
2018-Dec-09 02:30N 53°27' W 003°01'1 2.0
2018-Dec-09 02:00N 53°27' W 003°03'612.3
2018-Dec-09 01:30N 53°32' W 003°10'816.9
2018-Dec-09 01:00N 53°31' W 003°24'816.9
2018-Dec-09 00:30N 53°31' W 003°39'2 0.8
2018-Dec-08 21:40N 53°34' W 003°38'210.7
2018-Dec-08 21:30N 53°33' W 003°35'510.7
2018-Dec-08 21:00N 53°33' W 003°26'612.5
2018-Dec-08 20:30N 53°31' W 003°16'713.8
2018-Dec-08 20:00N 53°29' W 003°05'3 6.1
2018-Dec-08 19:30N 53°27' W 003°01'3 6.9
2018-Dec-08 19:00N 53°29' W 003°05'4 7.1
2018-Dec-08 18:30N 53°32' W 003°10'611.4
2018-Dec-08 18:01N 53°31' W 003°19'815.3
2018-Dec-08 17:31N 53°31' W 003°32'713.8
2018-Dec-08 17:00N 53°31' W 003°44'7614.5
2018-Dec-08 11:47N 53°23' W 005°51'618.3
2018-Dec-08 11:26N 53°21' W 006°00'615.1
2018-Dec-08 11:01N 53°21' W 006°11'1 2.3
2018-Dec-08 10:30N 53°21' W 006°13'0 0.0
2018-Dec-08 09:57N 53°21' W 006°13'0 0.0
2018-Dec-08 09:21N 53°21' W 006°13'0 0.0
2018-Dec-08 09:01N 53°21' W 006°13'0 0.0
2018-Dec-08 08:30N 53°21' W 006°13'0 0.0
2018-Dec-08 08:00N 53°21' W 006°13'0 0.0
2018-Dec-08 07:30N 53°21' W 006°13'0 0.0
2018-Dec-08 07:00N 53°21' W 006°13'0 0.0
2018-Dec-08 06:30N 53°21' W 006°13'0 0.0
2018-Dec-08 06:01N 53°21' W 006°13'0 0.0
2018-Dec-08 05:31N 53°21' W 006°13'0 0.0
2018-Dec-08 05:00N 53°21' W 006°13'0 0.0
2018-Dec-08 04:30N 53°21' W 006°13'0 0.0
2018-Dec-08 04:00N 53°21' W 006°13'0 0.0
2018-Dec-08 03:30N 53°21' W 006°13'0 0.0
2018-Dec-08 03:00N 53°21' W 006°13'0 0.0
2018-Dec-08 02:30N 53°21' W 006°13'0 0.0
2018-Dec-08 02:01N 53°21' W 006°13'0 0.0
2018-Dec-08 01:30N 53°21' W 006°13'0 0.0
2018-Dec-08 01:00N 53°21' W 006°13'0 0.0
2018-Dec-08 00:30N 53°21' W 006°13'0 0.0
2018-Dec-08 00:00N 53°21' W 006°13'0 0.0
2018-Dec-07 23:30N 53°21' W 006°13'0 0.0
2018-Dec-07 23:00N 53°21' W 006°13'0 0.0
2018-Dec-07 22:30N 53°21' W 006°13'0 0.0
2018-Dec-07 22:00N 53°21' W 006°13'0 0.0
2018-Dec-07 21:30N 53°21' W 006°13'0 0.0
2018-Dec-07 21:00N 53°21' W 006°13'0 0.8
2018-Dec-07 20:31N 53°21' W 006°12'611.0
2018-Dec-07 20:00N 53°21' W 006°03'816.8
2018-Dec-07 19:30N 53°24' W 005°50'7617.2
2018-Dec-07 15:05N 53°33' W 003°43'117.9
2018-Dec-07 15:00N 53°33' W 003°41'917.9
2018-Dec-07 14:30N 53°33' W 003°26'917.8
2018-Dec-07 14:00N 53°31' W 003°11'815.6
2018-Dec-07 13:31N 53°27' W 003°01'0 0.5
2018-Dec-07 13:00N 53°27' W 003°01'0 0.8
2018-Dec-07 12:29N 53°27' W 003°01'0 0.0
2018-Dec-07 12:00N 53°27' W 003°01'0 0.0
2018-Dec-07 11:30N 53°27' W 003°01'0 0.0
2018-Dec-07 11:00N 53°27' W 003°01'0 0.0
2018-Dec-07 10:30N 53°27' W 003°01'0 0.0
2018-Dec-07 10:00N 53°27' W 003°01'0 0.0
2018-Dec-07 09:30N 53°27' W 003°01'0 0.0
2018-Dec-07 09:00N 53°27' W 003°01'0 0.0
2018-Dec-07 08:30N 53°27' W 003°01'0 0.0
2018-Dec-07 08:00N 53°27' W 003°01'0 0.0
2018-Dec-07 07:30N 53°27' W 003°01'0 0.0
2018-Dec-07 07:00N 53°27' W 003°01'0 0.0
2018-Dec-07 06:30N 53°27' W 003°01'0 0.0
2018-Dec-07 06:00N 53°27' W 003°01'0 0.0
2018-Dec-07 05:30N 53°27' W 003°01'0 0.8
2018-Dec-07 05:00N 53°27' W 003°01'0 0.3
2018-Dec-07 04:30N 53°27' W 003°01'5 9.7
2018-Dec-07 04:00N 53°31' W 003°06'815.3
2018-Dec-07 03:30N 53°31' W 003°19'8718.1
2018-Dec-06 22:41N 53°24' W 005°45'1020.2
2018-Dec-06 22:11N 53°21' W 006°01'316.9
2018-Dec-06 22:01N 53°20' W 006°06'4 8.8
2018-Dec-06 21:30N 53°21' W 006°13'0 0.0
2018-Dec-06 21:00N 53°21' W 006°13'0 0.0
2018-Dec-06 20:30N 53°21' W 006°13'0 0.0
2018-Dec-06 20:00N 53°21' W 006°13'0 0.0
2018-Dec-06 19:30N 53°21' W 006°13'0 0.0
2018-Dec-06 19:00N 53°21' W 006°13'0 0.0
2018-Dec-06 18:30N 53°21' W 006°13'0 0.0
2018-Dec-06 18:00N 53°21' W 006°13'0 0.0
2018-Dec-06 17:30N 53°21' W 006°13'2 4.5
2018-Dec-06 17:00N 53°21' W 006°09'815.5
2018-Dec-06 16:30N 53°22' W 005°57'7917.8
2018-Dec-06 12:05N 53°33' W 003°45'218.4
2018-Dec-06 12:00N 53°33' W 003°43'918.2
2018-Dec-06 11:30N 53°33' W 003°28'918.3
2018-Dec-06 11:00N 53°31' W 003°13'815.8
2018-Dec-06 10:30N 53°27' W 003°02'1 1.0
2018-Dec-06 10:00N 53°27' W 003°01'0 0.3
2018-Dec-06 09:30N 53°27' W 003°01'0 0.0
2018-Dec-06 09:00N 53°27' W 003°01'0 0.0
2018-Dec-06 08:30N 53°27' W 003°01'0 0.0
2018-Dec-06 08:00N 53°27' W 003°01'0 0.0
2018-Dec-06 07:30N 53°27' W 003°01'0 0.0
2018-Dec-06 07:00N 53°27' W 003°01'0 0.0
2018-Dec-06 06:30N 53°27' W 003°01'0 0.0
2018-Dec-06 06:00N 53°27' W 003°01'0 0.0
2018-Dec-06 05:30N 53°27' W 003°01'0 0.8
2018-Dec-06 05:00N 53°27' W 003°01'1 1.5
2018-Dec-06 04:30N 53°27' W 003°02'713.4
2018-Dec-06 04:00N 53°32' W 003°11'817.0
2018-Dec-06 03:30N 53°31' W 003°25'9318.9
2018-Dec-05 22:35N 53°21' W 005°60'118.1
2018-Dec-05 22:30N 53°20' W 006°02'611.4
2018-Dec-05 22:00N 53°21' W 006°12'1 1.3
2018-Dec-05 21:21N 53°21' W 006°13'0 0.0
2018-Dec-05 21:00N 53°21' W 006°13'0 0.0
2018-Dec-05 20:30N 53°21' W 006°13'0 0.0
2018-Dec-05 20:00N 53°21' W 006°13'0 0.0
2018-Dec-05 19:30N 53°21' W 006°13'0 0.0
2018-Dec-05 19:00N 53°21' W 006°13'0 0.0
2018-Dec-05 18:30N 53°21' W 006°13'0 0.0
2018-Dec-05 18:00N 53°21' W 006°13'0 0.2
2018-Dec-05 17:30N 53°21' W 006°13'3 6.9
2018-Dec-05 17:00N 53°21' W 006°07'816.8
2018-Dec-05 16:30N 53°23' W 005°54'8118.4
2018-Dec-05 12:06N 53°33' W 003°39'219.8
2018-Dec-05 12:00N 53°33' W 003°36'1019.7
2018-Dec-05 11:30N 53°32' W 003°19'917.4
2018-Dec-05 11:01N 53°30' W 003°05'4 7.1
2018-Dec-05 10:30N 53°27' W 003°01'0 0.9
2018-Dec-05 10:00N 53°27' W 003°01'0 0.0
2018-Dec-05 09:30N 53°27' W 003°01'0 0.0
2018-Dec-05 09:00N 53°27' W 003°01'0 0.0
2018-Dec-05 08:30N 53°27' W 003°01'0 0.0
2018-Dec-05 08:00N 53°27' W 003°01'0 0.0
2018-Dec-05 07:30N 53°27' W 003°01'0 0.0
2018-Dec-05 07:00N 53°27' W 003°01'0 0.0
2018-Dec-05 06:30N 53°27' W 003°01'0 0.0
2018-Dec-05 06:00N 53°27' W 003°01'0 0.4
2018-Dec-05 05:30N 53°27' W 003°01'0 0.6
2018-Dec-05 05:00N 53°27' W 003°01'1 1.7
2018-Dec-05 04:30N 53°27' W 003°02'4 9.0
2018-Dec-05 04:00N 53°31' W 003°07'815.9
2018-Dec-05 03:30N 53°32' W 003°20'918.4
2018-Dec-05 03:00N 53°31' W 003°36'7817.3
2018-Dec-04 22:29N 53°24' W 005°47'918.7
2018-Dec-04 22:00N 53°21' W 006°01'713.4
2018-Dec-04 21:30N 53°21' W 006°12'1 1.2
2018-Dec-04 21:00N 53°21' W 006°13'0 0.0
2018-Dec-04 20:30N 53°21' W 006°13'0 0.0
2018-Dec-04 20:00N 53°21' W 006°13'0 0.0
2018-Dec-04 19:30N 53°21' W 006°13'0 0.0
2018-Dec-04 19:00N 53°21' W 006°13'0 0.0
2018-Dec-04 18:30N 53°21' W 006°13'0 0.0
2018-Dec-04 18:00N 53°21' W 006°13'0 0.0
2018-Dec-04 17:30N 53°21' W 006°13'2 3.9
2018-Dec-04 17:00N 53°21' W 006°10'713.6
2018-Dec-04 16:30N 53°22' W 005°59'815.8
2018-Dec-04 16:00N 53°25' W 005°46'7316.7
2018-Dec-04 11:36N 53°33' W 003°44'219.5
2018-Dec-04 11:31N 53°33' W 003°40'1019.3
2018-Dec-04 11:01N 53°33' W 003°24'918.7
2018-Dec-04 10:31N 53°32' W 003°09'612.9
2018-Dec-04 10:00N 53°27' W 003°01'0 0.9
2018-Dec-04 09:30N 53°27' W 003°01'0 0.0
2018-Dec-04 09:00N 53°27' W 003°01'0 0.0
2018-Dec-04 08:30N 53°27' W 003°01'0 0.0
2018-Dec-04 08:00N 53°27' W 003°01'0 0.0
2018-Dec-04 07:30N 53°27' W 003°01'0 0.0
2018-Dec-04 07:00N 53°27' W 003°01'0 0.0
2018-Dec-04 06:30N 53°27' W 003°01'0 0.0
2018-Dec-04 06:00N 53°27' W 003°01'0 0.0
2018-Dec-04 05:30N 53°27' W 003°01'0 0.4
2018-Dec-04 05:00N 53°27' W 003°01'0 0.6
2018-Dec-04 04:30N 53°27' W 003°01'4 9.0
2018-Dec-04 04:00N 53°30' W 003°06'816.2
2018-Dec-04 03:30N 53°32' W 003°20'1019.3
2018-Dec-04 03:00N 53°31' W 003°36'7716.7
2018-Dec-03 22:22N 53°24' W 005°45'918.8
2018-Dec-03 21:52N 53°21' W 006°00'615.6
2018-Dec-03 21:30N 53°21' W 006°10'2 4.2
2018-Dec-03 21:00N 53°21' W 006°13'0 0.0
2018-Dec-03 20:31N 53°21' W 006°13'0 0.0
2018-Dec-03 20:01N 53°21' W 006°13'0 0.0
2018-Dec-03 19:30N 53°21' W 006°13'0 0.0
2018-Dec-03 19:00N 53°21' W 006°13'0 0.0
2018-Dec-03 18:30N 53°21' W 006°13'0 0.0
2018-Dec-03 18:00N 53°21' W 006°13'0 0.2
2018-Dec-03 17:30N 53°21' W 006°13'5 9.3
2018-Dec-03 17:00N 53°20' W 006°05'917.4
2018-Dec-03 16:31N 53°23' W 005°52'7717.3
2018-Dec-03 12:04N 53°34' W 003°44'119.7
2018-Dec-03 12:00N 53°33' W 003°42'1019.6
2018-Dec-03 11:30N 53°33' W 003°25'1019.1
2018-Dec-03 11:00N 53°32' W 003°09'713.7
2018-Dec-03 10:30N 53°27' W 003°01'0 0.7
2018-Dec-03 10:00N 53°27' W 003°01'0 0.4
2018-Dec-03 09:30N 53°27' W 003°01'0 0.0
2018-Dec-03 09:00N 53°27' W 003°01'0 0.0
2018-Dec-03 08:30N 53°27' W 003°01'0 0.0
2018-Dec-03 08:00N 53°27' W 003°01'0 0.0
2018-Dec-03 07:30N 53°27' W 003°01'0 0.0
2018-Dec-03 07:00N 53°27' W 003°01'0 0.0
2018-Dec-03 06:31N 53°27' W 003°01'0 0.0
2018-Dec-03 06:00N 53°27' W 003°01'0 0.0
2018-Dec-03 05:30N 53°27' W 003°01'0 0.4
2018-Dec-03 05:00N 53°27' W 003°01'0 0.6
2018-Dec-03 04:31N 53°27' W 003°01'5 9.2
2018-Dec-03 04:00N 53°30' W 003°06'917.0
2018-Dec-03 03:30N 53°31' W 003°20'1019.0
2018-Dec-03 03:00N 53°31' W 003°36'1018.6
2018-Dec-03 02:29N 53°33' W 003°52'7715.7
2018-Dec-02 21:37N 53°21' W 005°60'216.2
2018-Dec-02 21:30N 53°20' W 006°02'611.8
2018-Dec-02 21:00N 53°21' W 006°12'0 0.8
2018-Dec-02 20:27N 53°21' W 006°13'0 0.0
2018-Dec-02 19:57N 53°21' W 006°13'0 0.0
2018-Dec-02 19:30N 53°21' W 006°13'0 0.0
2018-Dec-02 19:00N 53°21' W 006°13'0 0.0
2018-Dec-02 18:30N 53°21' W 006°13'0 0.0
2018-Dec-02 18:00N 53°21' W 006°13'0 0.0
2018-Dec-02 17:30N 53°21' W 006°13'0 0.0
2018-Dec-02 17:00N 53°21' W 006°13'0 0.0
2018-Dec-02 16:30N 53°21' W 006°13'0 0.0
2018-Dec-02 16:00N 53°21' W 006°13'0 0.0
2018-Dec-02 15:30N 53°21' W 006°13'0 0.0
2018-Dec-02 15:00N 53°21' W 006°13'0 0.0
2018-Dec-02 14:30N 53°21' W 006°13'0 0.0
2018-Dec-02 14:00N 53°21' W 006°13'0 0.0
2018-Dec-02 13:30N 53°21' W 006°13'0 0.0
2018-Dec-02 13:01N 53°21' W 006°13'0 0.0
2018-Dec-02 12:30N 53°21' W 006°13'0 0.0
2018-Dec-02 12:00N 53°21' W 006°13'0 0.0
2018-Dec-02 11:30N 53°21' W 006°13'0 0.0
2018-Dec-02 11:00N 53°21' W 006°13'0 0.0
2018-Dec-02 10:30N 53°21' W 006°13'0 0.0
2018-Dec-02 10:00N 53°21' W 006°13'0 0.0
2018-Dec-02 09:30N 53°21' W 006°13'0 0.0
2018-Dec-02 09:00N 53°21' W 006°13'0 0.0
2018-Dec-02 08:30N 53°21' W 006°13'0 0.0
2018-Dec-02 08:00N 53°21' W 006°13'0 0.0
2018-Dec-02 07:30N 53°21' W 006°13'0 0.0
2018-Dec-02 07:00N 53°21' W 006°13'0 0.0
2018-Dec-02 06:30N 53°21' W 006°13'0 0.0
2018-Dec-02 06:00N 53°21' W 006°13'0 0.0
2018-Dec-02 05:30N 53°21' W 006°13'0 0.0
2018-Dec-02 05:00N 53°21' W 006°13'0 0.0
2018-Dec-02 04:30N 53°21' W 006°13'0 0.0
2018-Dec-02 04:00N 53°21' W 006°13'0 0.0
2018-Dec-02 03:30N 53°21' W 006°13'0 0.0
2018-Dec-02 03:00N 53°21' W 006°13'0 0.0
2018-Dec-02 02:30N 53°21' W 006°13'0 0.0
2018-Dec-02 02:00N 53°21' W 006°13'0 0.0
2018-Dec-02 01:30N 53°21' W 006°13'0 0.0
2018-Dec-02 01:00N 53°21' W 006°13'0 0.0
2018-Dec-02 00:30N 53°21' W 006°13'0 0.0
2018-Dec-02 00:00N 53°21' W 006°13'0 0.0
2018-Dec-01 23:30N 53°21' W 006°13'0 0.0
2018-Dec-01 23:00N 53°21' W 006°13'0 0.0
2018-Dec-01 22:30N 53°21' W 006°13'0 0.0
2018-Dec-01 22:00N 53°21' W 006°13'0 0.0
2018-Dec-01 21:31N 53°21' W 006°13'0 0.0
2018-Dec-01 21:00N 53°21' W 006°13'0 0.0
2018-Dec-01 20:31N 53°21' W 006°13'0 0.0
2018-Dec-01 20:00N 53°21' W 006°13'0 0.0
2018-Dec-01 19:30N 53°21' W 006°13'0 0.0
2018-Dec-01 19:00N 53°21' W 006°13'0 0.0
2018-Dec-01 18:30N 53°21' W 006°13'0 0.0
2018-Dec-01 18:00N 53°21' W 006°13'0 0.0
2018-Dec-01 17:30N 53°21' W 006°13'0 0.0
2018-Dec-01 17:00N 53°21' W 006°13'0 0.0
2018-Dec-01 16:28N 53°21' W 006°13'0 0.0
2018-Dec-01 16:00N 53°21' W 006°13'0 0.0
2018-Dec-01 15:30N 53°21' W 006°13'0 0.0
2018-Dec-01 14:59N 53°21' W 006°13'0 0.0
2018-Dec-01 14:30N 53°21' W 006°13'0 0.0
2018-Dec-01 14:00N 53°21' W 006°13'0 0.0
2018-Dec-01 13:30N 53°21' W 006°13'0 0.0
2018-Dec-01 13:00N 53°21' W 006°13'0 0.0
2018-Dec-01 12:30N 53°21' W 006°13'0 0.0
2018-Dec-01 12:00N 53°21' W 006°13'0 0.0
2018-Dec-01 11:30N 53°21' W 006°13'0 0.3
2018-Dec-01 11:00N 53°21' W 006°13'2 4.7
2018-Dec-01 10:31N 53°21' W 006°09'815.5
2018-Dec-01 10:00N 53°22' W 005°56'816.0
2018-Dec-01 09:30N 53°25' W 005°43'  
Track history (hours):
 
Tides and Currents Weather Stations Pressure Air Temp Water Temp Dewpoint Dewpoint Depression Visibility Wind Speed Wind Dir Waves Ship Positions

Tahitian Princess

Operator: P & O Irish Sea Ltd

Last reported at 2018-Dec-11 07:30 UTC. Time now 2018-Dec-11 07:58 UTC.
Position N 53°27' W 003°01'.

Length 167 m; draft 5.7 m.

Type: Passenger vessel. MMSI: 310362000.

Date/timePositionNaut miles runAvg speedWind from/ knotsBaromVisibWave heightAir tempDewpointWater temp
2018-Dec-11 07:30N 53°27' W 003°01'0 0.0
2018-Dec-11 07:00N 53°27' W 003°01'0 0.0
2018-Dec-11 06:30N 53°27' W 003°01'0 0.0
2018-Dec-11 06:00N 53°27' W 003°01'0 0.0
2018-Dec-11 05:29N 53°27' W 003°01'0 0.6
2018-Dec-11 05:00N 53°27' W 003°01'0 0.7
2018-Dec-11 04:30N 53°27' W 003°01'611.3
2018-Dec-11 04:00N 53°31' W 003°07'816.6
2018-Dec-11 03:31N 53°31' W 003°21'816.3
2018-Dec-11 03:01N 53°31' W 003°35'8317.0
2018-Dec-10 22:09N 53°23' W 005°53'518.0
2018-Dec-10 21:51N 53°21' W 006°01'514.9
2018-Dec-10 21:30N 53°21' W 006°10'2 3.0
2018-Dec-10 20:50N 53°21' W 006°13'0 0.0
2018-Dec-10 20:14N 53°21' W 006°13'0 0.0
2018-Dec-10 20:00N 53°21' W 006°13'0 0.0
2018-Dec-10 19:31N 53°21' W 006°13'0 0.0
2018-Dec-10 19:01N 53°21' W 006°13'0 0.0
2018-Dec-10 18:30N 53°21' W 006°13'0 0.0
2018-Dec-10 18:00N 53°21' W 006°13'0 0.2
2018-Dec-10 17:30N 53°21' W 006°13'3 6.6
2018-Dec-10 17:00N 53°21' W 006°07'917.8
2018-Dec-10 16:30N 53°23' W 005°53'8019.2
2018-Dec-10 12:20N 53°33' W 003°40'618.0
2018-Dec-10 12:00N 53°33' W 003°30'917.7
2018-Dec-10 11:30N 53°31' W 003°15'815.0
2018-Dec-10 11:00N 53°28' W 003°04'2 4.2
2018-Dec-10 10:30N 53°27' W 003°01'0 0.2
2018-Dec-10 10:00N 53°27' W 003°01'0 0.6
2018-Dec-10 09:30N 53°27' W 003°01'0 0.0
2018-Dec-10 09:00N 53°27' W 003°01'0 0.0
2018-Dec-10 08:30N 53°27' W 003°01'0 0.0
2018-Dec-10 08:00N 53°27' W 003°01'0 0.0
2018-Dec-10 07:30N 53°27' W 003°01'0 0.0
2018-Dec-10 07:00N 53°27' W 003°01'0 0.0
2018-Dec-10 06:30N 53°27' W 003°01'0 0.4
2018-Dec-10 06:00N 53°27' W 003°01'0 0.6
2018-Dec-10 05:30N 53°27' W 003°01'4 7.9
2018-Dec-10 05:00N 53°30' W 003°06'713.7
2018-Dec-10 04:31N 53°31' W 003°17'917.8
2018-Dec-10 04:01N 53°31' W 003°32'917.2
2018-Dec-10 03:31N 53°32' W 003°46'7418.1
2018-Dec-09 23:26N 53°24' W 005°50'819.6
2018-Dec-09 23:00N 53°20' W 006°03'611.9
2018-Dec-09 22:30N 53°21' W 006°13'0 0.5
2018-Dec-09 22:00N 53°21' W 006°13'0 0.0
2018-Dec-09 21:30N 53°21' W 006°13'0 0.0
2018-Dec-09 21:00N 53°21' W 006°13'0 0.0
2018-Dec-09 20:30N 53°21' W 006°13'0 0.0
2018-Dec-09 20:00N 53°21' W 006°13'0 0.0
2018-Dec-09 19:30N 53°21' W 006°13'3 5.3
2018-Dec-09 19:00N 53°21' W 006°09'816.5
2018-Dec-09 18:30N 53°22' W 005°55'8221.0
2018-Dec-09 14:37N 53°34' W 003°39'220.9
2018-Dec-09 14:31N 53°34' W 003°35'1020.8
2018-Dec-09 14:01N 53°32' W 003°18'917.8
2018-Dec-09 13:31N 53°29' W 003°04'2 5.0
2018-Dec-09 13:00N 53°27' W 003°01'0 0.9
2018-Dec-09 12:30N 53°27' W 003°01'0 0.0
2018-Dec-09 12:00N 53°27' W 003°01'0 0.0
2018-Dec-09 11:30N 53°27' W 003°01'0 0.0
2018-Dec-09 11:00N 53°27' W 003°01'0 0.0
2018-Dec-09 10:31N 53°27' W 003°01'0 0.0
2018-Dec-09 10:01N 53°27' W 003°01'0 0.0
2018-Dec-09 09:31N 53°27' W 003°01'0 0.0
2018-Dec-09 09:00N 53°27' W 003°01'0 0.0
2018-Dec-09 08:30N 53°27' W 003°01'0 0.0
2018-Dec-09 08:00N 53°27' W 003°01'0 0.0
2018-Dec-09 07:31N 53°27' W 003°01'0 0.0
2018-Dec-09 07:00N 53°27' W 003°01'0 0.0
2018-Dec-09 06:30N 53°27' W 003°01'0 0.0
2018-Dec-09 06:00N 53°27' W 003°01'0 0.0
2018-Dec-09 05:30N 53°27' W 003°01'0 0.0
2018-Dec-09 05:01N 53°27' W 003°01'0 0.0
2018-Dec-09 04:30N 53°27' W 003°01'0 0.0
2018-Dec-09 04:00N 53°27' W 003°01'0 0.0
2018-Dec-09 03:30N 53°27' W 003°01'0 0.3
2018-Dec-09 03:00N 53°27' W 003°01'0 0.7
2018-Dec-09 02:30N 53°27' W 003°01'1 2.0
2018-Dec-09 02:00N 53°27' W 003°03'612.3
2018-Dec-09 01:30N 53°32' W 003°10'816.9
2018-Dec-09 01:00N 53°31' W 003°24'816.9
2018-Dec-09 00:30N 53°31' W 003°39'2 0.8
2018-Dec-08 21:40N 53°34' W 003°38'210.7
2018-Dec-08 21:30N 53°33' W 003°35'510.7
2018-Dec-08 21:00N 53°33' W 003°26'612.5
2018-Dec-08 20:30N 53°31' W 003°16'713.8
2018-Dec-08 20:00N 53°29' W 003°05'3 6.1
2018-Dec-08 19:30N 53°27' W 003°01'3 6.9
2018-Dec-08 19:00N 53°29' W 003°05'4 7.1
2018-Dec-08 18:30N 53°32' W 003°10'611.4
2018-Dec-08 18:01N 53°31' W 003°19'815.3
2018-Dec-08 17:31N 53°31' W 003°32'713.8
2018-Dec-08 17:00N 53°31' W 003°44'7614.5
2018-Dec-08 11:47N 53°23' W 005°51'618.3
2018-Dec-08 11:26N 53°21' W 006°00'615.1
2018-Dec-08 11:01N 53°21' W 006°11'1 2.3
2018-Dec-08 10:30N 53°21' W 006°13'0 0.0
2018-Dec-08 09:57N 53°21' W 006°13'0 0.0
2018-Dec-08 09:21N 53°21' W 006°13'0 0.0
2018-Dec-08 09:01N 53°21' W 006°13'0 0.0
2018-Dec-08 08:30N 53°21' W 006°13'0 0.0
2018-Dec-08 08:00N 53°21' W 006°13'0 0.0
2018-Dec-08 07:30N 53°21' W 006°13'0 0.0
2018-Dec-08 07:00N 53°21' W 006°13'0 0.0
2018-Dec-08 06:30N 53°21' W 006°13'0 0.0
2018-Dec-08 06:01N 53°21' W 006°13'0 0.0
2018-Dec-08 05:31N 53°21' W 006°13'0 0.0
2018-Dec-08 05:00N 53°21' W 006°13'0 0.0
2018-Dec-08 04:30N 53°21' W 006°13'0 0.0
2018-Dec-08 04:00N 53°21' W 006°13'0 0.0
2018-Dec-08 03:30N 53°21' W 006°13'0 0.0
2018-Dec-08 03:00N 53°21' W 006°13'0 0.0
2018-Dec-08 02:30N 53°21' W 006°13'0 0.0
2018-Dec-08 02:01N 53°21' W 006°13'0 0.0
2018-Dec-08 01:30N 53°21' W 006°13'0 0.0
2018-Dec-08 01:00N 53°21' W 006°13'0 0.0
2018-Dec-08 00:30N 53°21' W 006°13'0 0.0
2018-Dec-08 00:00N 53°21' W 006°13'0 0.0
2018-Dec-07 23:30N 53°21' W 006°13'0 0.0
2018-Dec-07 23:00N 53°21' W 006°13'0 0.0
2018-Dec-07 22:30N 53°21' W 006°13'0 0.0
2018-Dec-07 22:00N 53°21' W 006°13'0 0.0
2018-Dec-07 21:30N 53°21' W 006°13'0 0.0
2018-Dec-07 21:00N 53°21' W 006°13'0 0.8
2018-Dec-07 20:31N 53°21' W 006°12'611.0
2018-Dec-07 20:00N 53°21' W 006°03'816.8
2018-Dec-07 19:30N 53°24' W 005°50'7617.2
2018-Dec-07 15:05N 53°33' W 003°43'117.9
2018-Dec-07 15:00N 53°33' W 003°41'917.9
2018-Dec-07 14:30N 53°33' W 003°26'917.8
2018-Dec-07 14:00N 53°31' W 003°11'815.6
2018-Dec-07 13:31N 53°27' W 003°01'0 0.5
2018-Dec-07 13:00N 53°27' W 003°01'0 0.8
2018-Dec-07 12:29N 53°27' W 003°01'0 0.0
2018-Dec-07 12:00N 53°27' W 003°01'0 0.0
2018-Dec-07 11:30N 53°27' W 003°01'0 0.0
2018-Dec-07 11:00N 53°27' W 003°01'0 0.0
2018-Dec-07 10:30N 53°27' W 003°01'0 0.0
2018-Dec-07 10:00N 53°27' W 003°01'0 0.0
2018-Dec-07 09:30N 53°27' W 003°01'0 0.0
2018-Dec-07 09:00N 53°27' W 003°01'0 0.0
2018-Dec-07 08:30N 53°27' W 003°01'0 0.0
2018-Dec-07 08:00N 53°27' W 003°01'0 0.0
2018-Dec-07 07:30N 53°27' W 003°01'0 0.0
2018-Dec-07 07:00N 53°27' W 003°01'0 0.0
2018-Dec-07 06:30N 53°27' W 003°01'0 0.0
2018-Dec-07 06:00N 53°27' W 003°01'0 0.0
2018-Dec-07 05:30N 53°27' W 003°01'0 0.8
2018-Dec-07 05:00N 53°27' W 003°01'0 0.3
2018-Dec-07 04:30N 53°27' W 003°01'5 9.7
2018-Dec-07 04:00N 53°31' W 003°06'815.3
2018-Dec-07 03:30N 53°31' W 003°19'8718.1
2018-Dec-06 22:41N 53°24' W 005°45'1020.2
2018-Dec-06 22:11N 53°21' W 006°01'316.9
2018-Dec-06 22:01N 53°20' W 006°06'4 8.8
2018-Dec-06 21:30N 53°21' W 006°13'0 0.0
2018-Dec-06 21:00N 53°21' W 006°13'0 0.0
2018-Dec-06 20:30N 53°21' W 006°13'0 0.0
2018-Dec-06 20:00N 53°21' W 006°13'0 0.0
2018-Dec-06 19:30N 53°21' W 006°13'0 0.0
2018-Dec-06 19:00N 53°21' W 006°13'0 0.0
2018-Dec-06 18:30N 53°21' W 006°13'0 0.0
2018-Dec-06 18:00N 53°21' W 006°13'0 0.0
2018-Dec-06 17:30N 53°21' W 006°13'2 4.5
2018-Dec-06 17:00N 53°21' W 006°09'815.5
2018-Dec-06 16:30N 53°22' W 005°57'7917.8
2018-Dec-06 12:05N 53°33' W 003°45'218.4
2018-Dec-06 12:00N 53°33' W 003°43'918.2
2018-Dec-06 11:30N 53°33' W 003°28'918.3
2018-Dec-06 11:00N 53°31' W 003°13'815.8
2018-Dec-06 10:30N 53°27' W 003°02'1 1.0
2018-Dec-06 10:00N 53°27' W 003°01'0 0.3
2018-Dec-06 09:30N 53°27' W 003°01'0 0.0
2018-Dec-06 09:00N 53°27' W 003°01'0 0.0
2018-Dec-06 08:30N 53°27' W 003°01'0 0.0
2018-Dec-06 08:00N 53°27' W 003°01'0 0.0
2018-Dec-06 07:30N 53°27' W 003°01'0 0.0
2018-Dec-06 07:00N 53°27' W 003°01'0 0.0
2018-Dec-06 06:30N 53°27' W 003°01'0 0.0
2018-Dec-06 06:00N 53°27' W 003°01'0 0.0
2018-Dec-06 05:30N 53°27' W 003°01'0 0.8
2018-Dec-06 05:00N 53°27' W 003°01'1 1.5
2018-Dec-06 04:30N 53°27' W 003°02'713.4
2018-Dec-06 04:00N 53°32' W 003°11'817.0
2018-Dec-06 03:30N 53°31' W 003°25'9318.9
2018-Dec-05 22:35N 53°21' W 005°60'118.1
2018-Dec-05 22:30N 53°20' W 006°02'611.4
2018-Dec-05 22:00N 53°21' W 006°12'1 1.3
2018-Dec-05 21:21N 53°21' W 006°13'0 0.0
2018-Dec-05 21:00N 53°21' W 006°13'0 0.0
2018-Dec-05 20:30N 53°21' W 006°13'0 0.0
2018-Dec-05 20:00N 53°21' W 006°13'0 0.0
2018-Dec-05 19:30N 53°21' W 006°13'0 0.0
2018-Dec-05 19:00N 53°21' W 006°13'0 0.0
2018-Dec-05 18:30N 53°21' W 006°13'0 0.0
2018-Dec-05 18:00N 53°21' W 006°13'0 0.2
2018-Dec-05 17:30N 53°21' W 006°13'3 6.9
2018-Dec-05 17:00N 53°21' W 006°07'816.8
2018-Dec-05 16:30N 53°23' W 005°54'8118.4
2018-Dec-05 12:06N 53°33' W 003°39'219.8
2018-Dec-05 12:00N 53°33' W 003°36'1019.7
2018-Dec-05 11:30N 53°32' W 003°19'917.4
2018-Dec-05 11:01N 53°30' W 003°05'4 7.1
2018-Dec-05 10:30N 53°27' W 003°01'0 0.9
2018-Dec-05 10:00N 53°27' W 003°01'0 0.0
2018-Dec-05 09:30N 53°27' W 003°01'0 0.0
2018-Dec-05 09:00N 53°27' W 003°01'0 0.0
2018-Dec-05 08:30N 53°27' W 003°01'0 0.0
2018-Dec-05 08:00N 53°27' W 003°01'0 0.0
2018-Dec-05 07:30N 53°27' W 003°01'0 0.0
2018-Dec-05 07:00N 53°27' W 003°01'0 0.0
2018-Dec-05 06:30N 53°27' W 003°01'0 0.0
2018-Dec-05 06:00N 53°27' W 003°01'0 0.4
2018-Dec-05 05:30N 53°27' W 003°01'0 0.6
2018-Dec-05 05:00N 53°27' W 003°01'1 1.7
2018-Dec-05 04:30N 53°27' W 003°02'4 9.0
2018-Dec-05 04:00N 53°31' W 003°07'815.9
2018-Dec-05 03:30N 53°32' W 003°20'918.4
2018-Dec-05 03:00N 53°31' W 003°36'7817.3
2018-Dec-04 22:29N 53°24' W 005°47'918.7
2018-Dec-04 22:00N 53°21' W 006°01'713.4
2018-Dec-04 21:30N 53°21' W 006°12'1 1.2
2018-Dec-04 21:00N 53°21' W 006°13'0 0.0
2018-Dec-04 20:30N 53°21' W 006°13'0 0.0
2018-Dec-04 20:00N 53°21' W 006°13'0 0.0
2018-Dec-04 19:30N 53°21' W 006°13'0 0.0
2018-Dec-04 19:00N 53°21' W 006°13'0 0.0
2018-Dec-04 18:30N 53°21' W 006°13'0 0.0
2018-Dec-04 18:00N 53°21' W 006°13'0 0.0
2018-Dec-04 17:30N 53°21' W 006°13'2 3.9
2018-Dec-04 17:00N 53°21' W 006°10'713.6
2018-Dec-04 16:30N 53°22' W 005°59'815.8
2018-Dec-04 16:00N 53°25' W 005°46'7316.7
2018-Dec-04 11:36N 53°33' W 003°44'219.5
2018-Dec-04 11:31N 53°33' W 003°40'1019.3
2018-Dec-04 11:01N 53°33' W 003°24'918.7
2018-Dec-04 10:31N 53°32' W 003°09'612.9
2018-Dec-04 10:00N 53°27' W 003°01'0 0.9
2018-Dec-04 09:30N 53°27' W 003°01'0 0.0
2018-Dec-04 09:00N 53°27' W 003°01'0 0.0
2018-Dec-04 08:30N 53°27' W 003°01'0 0.0
2018-Dec-04 08:00N 53°27' W 003°01'0 0.0
2018-Dec-04 07:30N 53°27' W 003°01'0 0.0
2018-Dec-04 07:00N 53°27' W 003°01'0 0.0
2018-Dec-04 06:30N 53°27' W 003°01'0 0.0
2018-Dec-04 06:00N 53°27' W 003°01'0 0.0
2018-Dec-04 05:30N 53°27' W 003°01'0 0.4
2018-Dec-04 05:00N 53°27' W 003°01'0 0.6
2018-Dec-04 04:30N 53°27' W 003°01'4 9.0
2018-Dec-04 04:00N 53°30' W 003°06'816.2
2018-Dec-04 03:30N 53°32' W 003°20'1019.3
2018-Dec-04 03:00N 53°31' W 003°36'7716.7
2018-Dec-03 22:22N 53°24' W 005°45'918.8
2018-Dec-03 21:52N 53°21' W 006°00'615.6
2018-Dec-03 21:30N 53°21' W 006°10'2 4.2
2018-Dec-03 21:00N 53°21' W 006°13'0 0.0
2018-Dec-03 20:31N 53°21' W 006°13'0 0.0
2018-Dec-03 20:01N 53°21' W 006°13'0 0.0
2018-Dec-03 19:30N 53°21' W 006°13'0 0.0
2018-Dec-03 19:00N 53°21' W 006°13'0 0.0
2018-Dec-03 18:30N 53°21' W 006°13'0 0.0
2018-Dec-03 18:00N 53°21' W 006°13'0 0.2
2018-Dec-03 17:30N 53°21' W 006°13'5 9.3
2018-Dec-03 17:00N 53°20' W 006°05'917.4
2018-Dec-03 16:31N 53°23' W 005°52'7717.3
2018-Dec-03 12:04N 53°34' W 003°44'119.7
2018-Dec-03 12:00N 53°33' W 003°42'1019.6
2018-Dec-03 11:30N 53°33' W 003°25'1019.1
2018-Dec-03 11:00N 53°32' W 003°09'713.7
2018-Dec-03 10:30N 53°27' W 003°01'0 0.7
2018-Dec-03 10:00N 53°27' W 003°01'0 0.4
2018-Dec-03 09:30N 53°27' W 003°01'0 0.0
2018-Dec-03 09:00N 53°27' W 003°01'0 0.0
2018-Dec-03 08:30N 53°27' W 003°01'0 0.0
2018-Dec-03 08:00N 53°27' W 003°01'0 0.0
2018-Dec-03 07:30N 53°27' W 003°01'0 0.0
2018-Dec-03 07:00N 53°27' W 003°01'0 0.0
2018-Dec-03 06:31N 53°27' W 003°01'0 0.0
2018-Dec-03 06:00N 53°27' W 003°01'0 0.0
2018-Dec-03 05:30N 53°27' W 003°01'0 0.4
2018-Dec-03 05:00N 53°27' W 003°01'0 0.6
2018-Dec-03 04:31N 53°27' W 003°01'5 9.2
2018-Dec-03 04:00N 53°30' W 003°06'917.0
2018-Dec-03 03:30N 53°31' W 003°20'1019.0
2018-Dec-03 03:00N 53°31' W 003°36'1018.6
2018-Dec-03 02:29N 53°33' W 003°52'7715.7
2018-Dec-02 21:37N 53°21' W 005°60'216.2
2018-Dec-02 21:30N 53°20' W 006°02'611.8
2018-Dec-02 21:00N 53°21' W 006°12'0 0.8
2018-Dec-02 20:27N 53°21' W 006°13'0 0.0
2018-Dec-02 19:57N 53°21' W 006°13'0 0.0
2018-Dec-02 19:30N 53°21' W 006°13'0 0.0
2018-Dec-02 19:00N 53°21' W 006°13'0 0.0
2018-Dec-02 18:30N 53°21' W 006°13'0 0.0
2018-Dec-02 18:00N 53°21' W 006°13'0 0.0
2018-Dec-02 17:30N 53°21' W 006°13'0 0.0
2018-Dec-02 17:00N 53°21' W 006°13'0 0.0
2018-Dec-02 16:30N 53°21' W 006°13'0 0.0
2018-Dec-02 16:00N 53°21' W 006°13'0 0.0
2018-Dec-02 15:30N 53°21' W 006°13'0 0.0
2018-Dec-02 15:00N 53°21' W 006°13'0 0.0
2018-Dec-02 14:30N 53°21' W 006°13'0 0.0
2018-Dec-02 14:00N 53°21' W 006°13'0 0.0
2018-Dec-02 13:30N 53°21' W 006°13'0 0.0
2018-Dec-02 13:01N 53°21' W 006°13'0 0.0
2018-Dec-02 12:30N 53°21' W 006°13'0 0.0
2018-Dec-02 12:00N 53°21' W 006°13'0 0.0
2018-Dec-02 11:30N 53°21' W 006°13'0 0.0
2018-Dec-02 11:00N 53°21' W 006°13'0 0.0
2018-Dec-02 10:30N 53°21' W 006°13'0 0.0
2018-Dec-02 10:00N 53°21' W 006°13'0 0.0
2018-Dec-02 09:30N 53°21' W 006°13'0 0.0
2018-Dec-02 09:00N 53°21' W 006°13'0 0.0
2018-Dec-02 08:30N 53°21' W 006°13'0 0.0
2018-Dec-02 08:00N 53°21' W 006°13'0 0.0
2018-Dec-02 07:30N 53°21' W 006°13'0 0.0
2018-Dec-02 07:00N 53°21' W 006°13'0 0.0
2018-Dec-02 06:30N 53°21' W 006°13'0 0.0
2018-Dec-02 06:00N 53°21' W 006°13'0 0.0
2018-Dec-02 05:30N 53°21' W 006°13'0 0.0
2018-Dec-02 05:00N 53°21' W 006°13'0 0.0
2018-Dec-02 04:30N 53°21' W 006°13'0 0.0
2018-Dec-02 04:00N 53°21' W 006°13'0 0.0
2018-Dec-02 03:30N 53°21' W 006°13'0 0.0
2018-Dec-02 03:00N 53°21' W 006°13'0 0.0
2018-Dec-02 02:30N 53°21' W 006°13'0 0.0
2018-Dec-02 02:00N 53°21' W 006°13'0 0.0
2018-Dec-02 01:30N 53°21' W 006°13'0 0.0
2018-Dec-02 01:00N 53°21' W 006°13'0 0.0
2018-Dec-02 00:30N 53°21' W 006°13'0 0.0
2018-Dec-02 00:00N 53°21' W 006°13'0 0.0
2018-Dec-01 23:30N 53°21' W 006°13'0 0.0
2018-Dec-01 23:00N 53°21' W 006°13'0 0.0
2018-Dec-01 22:30N 53°21' W 006°13'0 0.0
2018-Dec-01 22:00N 53°21' W 006°13'0 0.0
2018-Dec-01 21:31N 53°21' W 006°13'0 0.0
2018-Dec-01 21:00N 53°21' W 006°13'0 0.0
2018-Dec-01 20:31N 53°21' W 006°13'0 0.0
2018-Dec-01 20:00N 53°21' W 006°13'0 0.0
2018-Dec-01 19:30N 53°21' W 006°13'0 0.0
2018-Dec-01 19:00N 53°21' W 006°13'0 0.0
2018-Dec-01 18:30N 53°21' W 006°13'0 0.0
2018-Dec-01 18:00N 53°21' W 006°13'0 0.0
2018-Dec-01 17:30N 53°21' W 006°13'0 0.0
2018-Dec-01 17:00N 53°21' W 006°13'0 0.0
2018-Dec-01 16:28N 53°21' W 006°13'0 0.0
2018-Dec-01 16:00N 53°21' W 006°13'0 0.0
2018-Dec-01 15:30N 53°21' W 006°13'0 0.0
2018-Dec-01 14:59N 53°21' W 006°13'0 0.0
2018-Dec-01 14:30N 53°21' W 006°13'0 0.0
2018-Dec-01 14:00N 53°21' W 006°13'0 0.0
2018-Dec-01 13:30N 53°21' W 006°13'0 0.0
2018-Dec-01 13:00N 53°21' W 006°13'0 0.0
2018-Dec-01 12:30N 53°21' W 006°13'0 0.0
2018-Dec-01 12:00N 53°21' W 006°13'0 0.0
2018-Dec-01 11:30N 53°21' W 006°13'0 0.3
2018-Dec-01 11:00N 53°21' W 006°13'2 4.7
2018-Dec-01 10:31N 53°21' W 006°09'815.5
2018-Dec-01 10:00N 53°22' W 005°56'816.0
2018-Dec-01 09:30N 53°25' W 005°43'  

Dump ship's entire track history